Phillipsburg, New Jersey
Current Conditions -  °F | °C
As of 10:51 AM on Saturday 22 Nov 2014 (Local Time) from KABE Reporting Station
Clear Clear  
Wind Chill: 28°   Ceiling: Unl
Heat Index: 36°   Visibility: 10mi
Dew Point: 12°   Wind: 12mph
Humidity: 37%   Direction: 230°SW
Pressure: 30.42"   Gusts: NA
Location:  40.69°N, 75.2°W
Report Text: KABE 221551Z 23010KT 10SM CLR 02/M11 A3042 RMK AO2 SLP307 T00221111
Loading
Personal Weather Stations






























Interactive Weather Map New forecast layout! Learn more

10-Day Weather Forecast

Advertisements
Track Severe Weather on mobile